Terminal Aerodrome Forecast
Issued by NWS Caribou, ME

Home | Current Version | Previous Version | Text Only | Print | Product List | Glossary On
Versions: 1 2 3 4 5 6 7 8 9 10 11 12 13 14 15 16
000
FTUS41 KCAR 080538 AAB
TAFBGR
TAF AMD
KBGR 080538Z 0806/0906 18007KT 2SM BR BKN002
     FM080800 19007KT 3/4SM BR OVC001
     FM081200 20007KT 2SM SHRA OVC003
     FM081500 24006KT P6SM BKN007
     FM081700 29010G20KT P6SM SCT035
     FM082100 33006KT P6SM SKC=

USA.gov is the U.S. government's official web portal to all federal, state and local government web resources and services.